Página principal
METAR-TAF:

METAR-TAF

Aeroportos :

Aeroporto de Estocolmo-Bromma

Estocolmo, Suécia

latitude: 59-21N, longitude: 017-57E, altura: 14 m

Observação actual do tempo

O boletim foi feito há 29 minutos, às 01:50 UTC
Vento 6 kt de su-sudoeste
Temperatura 9°C
Humidade 93%
Pressão 1032 hPa
Visibilidade 10 km ou mais

METAR: ESSB 160150Z AUTO 21006KT 9999 OVC048/// 09/08 Q1032

Hora: 03:19 (02:19 UTC)

Previsão

O boletim foi feito há 8 horas e 49 minutos, às 17:30 UTC
Previsão válida de 15 às 18 UTC a 15 às 21 UTC
Vento 6 kt de su-sudoeste
Visibilidade 10 km ou mais
Nuvens fragmentadasa uma altura de 700 ft
Probabilidade 40%
de 15 às 18 UTC a 15 às 21 UTC
Nuvens fragmentadasa uma altura de 1500 ft

TAF: ESSB 151730Z 1518/1521 21006KT 9999 BKN007 PROB40 1518/1521 BKN015

Observações e previsões do tempo de mais de 4000 aeroportos (mensagens METAR e TAF).

As estações disponíveis são os pontos amarelos e vermelhos sobre o mapa.

Mova o rato sobre o mapa para ver o nome da estação.

Depois clique no ponto para visualizar as observações e previsões meteorológicas.

Para alterar o mapa : clique nos botões verdes com uma cruz preta para aumentar o zoom; no botão verde com uma pitada de zoom; ou nas setas verdes para mapas adjacentes.


METAR-TAF: